sensor_id;sensor_type;location;lat;lon;timestamp;P1;durP1;ratioP1;P2;durP2;ratioP2
65835;SDS011;52595;51.608;7.216;2023-01-19T00:01:54;14.48;;;7.85;;
65835;SDS011;52595;51.608;7.216;2023-01-19T00:04:19;12.85;;;7.13;;
65835;SDS011;52595;51.608;7.216;2023-01-19T00:06:45;13.63;;;7.43;;
65835;SDS011;52595;51.608;7.216;2023-01-19T00:09:10;12.18;;;7.38;;
65835;SDS011;52595;51.608;7.216;2023-01-19T00:11:36;12.57;;;7.40;;
65835;SDS011;52595;51.608;7.216;2023-01-19T00:14:01;11.55;;;6.47;;
65835;SDS011;52595;51.608;7.216;2023-01-19T00:16:27;11.85;;;6.60;;
65835;SDS011;52595;51.608;7.216;2023-01-19T00:18:52;15.40;;;7.53;;
65835;SDS011;52595;51.608;7.216;2023-01-19T00:21:18;10.60;;;5.68;;
65835;SDS011;52595;51.608;7.216;2023-01-19T00:23:45;13.40;;;7.15;;
65835;SDS011;52595;51.608;7.216;2023-01-19T00:26:15;13.57;;;7.28;;
65835;SDS011;52595;51.608;7.216;2023-01-19T00:28:42;10.98;;;5.90;;
65835;SDS011;52595;51.608;7.216;2023-01-19T00:31:08;9.82;;;5.50;;
65835;SDS011;52595;51.608;7.216;2023-01-19T00:33:33;12.52;;;7.32;;
65835;SDS011;52595;51.608;7.216;2023-01-19T00:35:59;16.05;;;8.15;;
65835;SDS011;52595;51.608;7.216;2023-01-19T00:38:24;17.95;;;6.55;;
65835;SDS011;52595;51.608;7.216;2023-01-19T00:40:49;12.82;;;6.95;;
65835;SDS011;52595;51.608;7.216;2023-01-19T00:43:15;16.73;;;8.73;;
65835;SDS011;52595;51.608;7.216;2023-01-19T00:45:40;12.65;;;7.20;;
65835;SDS011;52595;51.608;7.216;2023-01-19T00:48:06;16.35;;;7.13;;
65835;SDS011;52595;51.608;7.216;2023-01-19T00:50:32;12.02;;;7.15;;
65835;SDS011;52595;51.608;7.216;2023-01-19T00:52:58;13.82;;;7.68;;
65835;SDS011;52595;51.608;7.216;2023-01-19T00:55:28;11.43;;;6.45;;
65835;SDS011;52595;51.608;7.216;2023-01-19T00:57:55;14.95;;;7.75;;
65835;SDS011;52595;51.608;7.216;2023-01-19T01:00:21;12.85;;;6.47;;
65835;SDS011;52595;51.608;7.216;2023-01-19T01:02:47;13.90;;;8.30;;
65835;SDS011;52595;51.608;7.216;2023-01-19T01:05:14;12.55;;;6.72;;
65835;SDS011;52595;51.608;7.216;2023-01-19T01:07:40;12.60;;;7.57;;
65835;SDS011;52595;51.608;7.216;2023-01-19T01:10:29;11.50;;;6.97;;
65835;SDS011;52595;51.608;7.216;2023-01-19T01:12:55;14.32;;;7.82;;
65835;SDS011;52595;51.608;7.216;2023-01-19T01:15:20;26.10;;;6.72;;
65835;SDS011;52595;51.608;7.216;2023-01-19T01:17:46;12.65;;;6.90;;
65835;SDS011;52595;51.608;7.216;2023-01-19T01:20:12;13.05;;;7.13;;
65835;SDS011;52595;51.608;7.216;2023-01-19T01:22:42;12.75;;;6.75;;
65835;SDS011;52595;51.608;7.216;2023-01-19T01:25:10;16.02;;;8.45;;
65835;SDS011;52595;51.608;7.216;2023-01-19T01:27:36;14.05;;;8.35;;
65835;SDS011;52595;51.608;7.216;2023-01-19T01:30:02;17.90;;;9.32;;
65835;SDS011;52595;51.608;7.216;2023-01-19T01:32:28;21.48;;;7.53;;
65835;SDS011;52595;51.608;7.216;2023-01-19T01:34:54;14.18;;;8.00;;
65835;SDS011;52595;51.608;7.216;2023-01-19T01:37:19;10.98;;;6.35;;
65835;SDS011;52595;51.608;7.216;2023-01-19T01:39:45;18.63;;;8.82;;
65835;SDS011;52595;51.608;7.216;2023-01-19T01:42:15;18.48;;;8.93;;
65835;SDS011;52595;51.608;7.216;2023-01-19T01:50:15;15.65;;;8.07;;
65835;SDS011;52595;51.608;7.216;2023-01-19T01:52:48;11.52;;;6.75;;
65835;SDS011;52595;51.608;7.216;2023-01-19T01:55:20;15.15;;;7.47;;
65835;SDS011;52595;51.608;7.216;2023-01-19T01:57:48;13.65;;;6.63;;
65835;SDS011;52595;51.608;7.216;2023-01-19T02:00:15;18.42;;;8.90;;
65835;SDS011;52595;51.608;7.216;2023-01-19T02:02:41;11.77;;;6.47;;
65835;SDS011;52595;51.608;7.216;2023-01-19T02:05:25;10.35;;;5.55;;
65835;SDS011;52595;51.608;7.216;2023-01-19T02:08:03;12.30;;;7.35;;
65835;SDS011;52595;51.608;7.216;2023-01-19T02:10:55;8.63;;;4.80;;
65835;SDS011;52595;51.608;7.216;2023-01-19T02:13:41;13.75;;;7.35;;
65835;SDS011;52595;51.608;7.216;2023-01-19T02:16:11;12.13;;;5.43;;
65835;SDS011;52595;51.608;7.216;2023-01-19T02:18:37;15.15;;;8.52;;
65835;SDS011;52595;51.608;7.216;2023-01-19T02:23:44;10.35;;;6.35;;
65835;SDS011;52595;51.608;7.216;2023-01-19T02:26:15;17.23;;;7.93;;
65835;SDS011;52595;51.608;7.216;2023-01-19T02:28:45;11.65;;;6.38;;
65835;SDS011;52595;51.608;7.216;2023-01-19T02:31:14;15.35;;;7.82;;
65835;SDS011;52595;51.608;7.216;2023-01-19T02:33:39;12.70;;;6.97;;
65835;SDS011;52595;51.608;7.216;2023-01-19T02:36:05;13.52;;;6.78;;
65835;SDS011;52595;51.608;7.216;2023-01-19T02:38:34;10.98;;;7.05;;
65835;SDS011;52595;51.608;7.216;2023-01-19T02:41:00;16.35;;;8.05;;
65835;SDS011;52595;51.608;7.216;2023-01-19T02:43:29;11.90;;;6.45;;
65835;SDS011;52595;51.608;7.216;2023-01-19T02:45:56;10.43;;;5.82;;
65835;SDS011;52595;51.608;7.216;2023-01-19T02:48:21;16.98;;;7.32;;
65835;SDS011;52595;51.608;7.216;2023-01-19T02:50:51;11.80;;;5.95;;
65835;SDS011;52595;51.608;7.216;2023-01-19T02:56:19;14.10;;;6.07;;
65835;SDS011;52595;51.608;7.216;2023-01-19T02:59:21;10.52;;;5.90;;
65835;SDS011;52595;51.608;7.216;2023-01-19T03:02:11;10.68;;;5.95;;
65835;SDS011;52595;51.608;7.216;2023-01-19T03:10:54;12.93;;;6.72;;
65835;SDS011;52595;51.608;7.216;2023-01-19T03:16:04;11.98;;;6.30;;
65835;SDS011;52595;51.608;7.216;2023-01-19T03:18:36;15.07;;;7.80;;
65835;SDS011;52595;51.608;7.216;2023-01-19T03:21:07;17.33;;;8.53;;
65835;SDS011;52595;51.608;7.216;2023-01-19T03:23:35;18.80;;;8.18;;
65835;SDS011;52595;51.608;7.216;2023-01-19T03:26:02;14.65;;;7.22;;
65835;SDS011;52595;51.608;7.216;2023-01-19T03:28:29;11.30;;;6.00;;
65835;SDS011;52595;51.608;7.216;2023-01-19T03:31:04;13.05;;;7.15;;
65835;SDS011;52595;51.608;7.216;2023-01-19T03:33:36;12.18;;;6.32;;
65835;SDS011;52595;51.608;7.216;2023-01-19T03:36:07;15.13;;;7.43;;
65835;SDS011;52595;51.608;7.216;2023-01-19T03:38:37;12.65;;;6.70;;
65835;SDS011;52595;51.608;7.216;2023-01-19T03:41:07;12.32;;;6.70;;
65835;SDS011;52595;51.608;7.216;2023-01-19T03:43:36;16.45;;;8.43;;
65835;SDS011;52595;51.608;7.216;2023-01-19T03:46:03;10.20;;;6.25;;
65835;SDS011;52595;51.608;7.216;2023-01-19T03:48:30;10.32;;;6.00;;
65835;SDS011;52595;51.608;7.216;2023-01-19T03:50:56;11.77;;;5.43;;
65835;SDS011;52595;51.608;7.216;2023-01-19T03:53:22;13.07;;;5.70;;
65835;SDS011;52595;51.608;7.216;2023-01-19T03:55:49;9.07;;;4.97;;
65835;SDS011;52595;51.608;7.216;2023-01-19T03:58:16;17.48;;;8.52;;
65835;SDS011;52595;51.608;7.216;2023-01-19T04:00:41;11.88;;;7.22;;
65835;SDS011;52595;51.608;7.216;2023-01-19T04:03:12;12.45;;;7.10;;
65835;SDS011;52595;51.608;7.216;2023-01-19T04:05:38;17.55;;;7.97;;
65835;SDS011;52595;51.608;7.216;2023-01-19T04:08:04;15.80;;;8.40;;
65835;SDS011;52595;51.608;7.216;2023-01-19T04:10:30;10.68;;;5.80;;
65835;SDS011;52595;51.608;7.216;2023-01-19T04:12:59;15.13;;;7.38;;
65835;SDS011;52595;51.608;7.216;2023-01-19T04:15:25;14.93;;;6.65;;
65835;SDS011;52595;51.608;7.216;2023-01-19T04:17:51;14.50;;;7.28;;
65835;SDS011;52595;51.608;7.216;2023-01-19T04:20:16;17.05;;;9.40;;
65835;SDS011;52595;51.608;7.216;2023-01-19T04:22:42;16.33;;;8.23;;
65835;SDS011;52595;51.608;7.216;2023-01-19T04:25:08;14.65;;;7.60;;
65835;SDS011;52595;51.608;7.216;2023-01-19T04:27:34;16.80;;;9.30;;
65835;SDS011;52595;51.608;7.216;2023-01-19T04:30:01;18.50;;;8.90;;
65835;SDS011;52595;51.608;7.216;2023-01-19T04:32:28;16.67;;;8.80;;
65835;SDS011;52595;51.608;7.216;2023-01-19T04:34:54;17.92;;;8.48;;
65835;SDS011;52595;51.608;7.216;2023-01-19T04:37:20;16.98;;;8.73;;
65835;SDS011;52595;51.608;7.216;2023-01-19T04:39:45;17.60;;;8.93;;
65835;SDS011;52595;51.608;7.216;2023-01-19T04:42:11;22.13;;;11.00;;
65835;SDS011;52595;51.608;7.216;2023-01-19T04:44:37;19.63;;;10.27;;
65835;SDS011;52595;51.608;7.216;2023-01-19T04:47:02;18.88;;;8.38;;
65835;SDS011;52595;51.608;7.216;2023-01-19T04:49:28;12.07;;;6.55;;
65835;SDS011;52595;51.608;7.216;2023-01-19T04:51:53;25.27;;;11.40;;
65835;SDS011;52595;51.608;7.216;2023-01-19T04:54:19;19.45;;;9.07;;
65835;SDS011;52595;51.608;7.216;2023-01-19T04:56:45;21.67;;;10.70;;
65835;SDS011;52595;51.608;7.216;2023-01-19T04:59:10;17.80;;;9.32;;
65835;SDS011;52595;51.608;7.216;2023-01-19T05:01:36;11.73;;;5.93;;
65835;SDS011;52595;51.608;7.216;2023-01-19T05:04:01;12.23;;;7.00;;
65835;SDS011;52595;51.608;7.216;2023-01-19T05:06:29;15.95;;;7.47;;
65835;SDS011;52595;51.608;7.216;2023-01-19T05:08:54;9.60;;;6.20;;
65835;SDS011;52595;51.608;7.216;2023-01-19T05:11:20;21.83;;;9.10;;
65835;SDS011;52595;51.608;7.216;2023-01-19T05:13:45;24.92;;;11.30;;
65835;SDS011;52595;51.608;7.216;2023-01-19T05:16:11;17.27;;;8.10;;
65835;SDS011;52595;51.608;7.216;2023-01-19T05:18:37;26.52;;;11.88;;
65835;SDS011;52595;51.608;7.216;2023-01-19T05:21:04;11.50;;;6.18;;
65835;SDS011;52595;51.608;7.216;2023-01-19T05:23:30;13.90;;;6.55;;
65835;SDS011;52595;51.608;7.216;2023-01-19T05:25:56;18.08;;;8.90;;
65835;SDS011;52595;51.608;7.216;2023-01-19T05:28:25;23.65;;;10.40;;
65835;SDS011;52595;51.608;7.216;2023-01-19T05:30:51;15.57;;;8.15;;
65835;SDS011;52595;51.608;7.216;2023-01-19T05:33:18;27.45;;;13.23;;
65835;SDS011;52595;51.608;7.216;2023-01-19T05:35:44;20.50;;;11.30;;
65835;SDS011;52595;51.608;7.216;2023-01-19T05:38:09;14.30;;;7.40;;
65835;SDS011;52595;51.608;7.216;2023-01-19T05:40:34;14.57;;;8.13;;
65835;SDS011;52595;51.608;7.216;2023-01-19T05:43:00;15.05;;;7.95;;
65835;SDS011;52595;51.608;7.216;2023-01-19T05:45:28;25.05;;;12.45;;
65835;SDS011;52595;51.608;7.216;2023-01-19T05:47:53;29.95;;;13.60;;
65835;SDS011;52595;51.608;7.216;2023-01-19T05:50:19;29.27;;;12.15;;
65835;SDS011;52595;51.608;7.216;2023-01-19T05:52:44;19.65;;;10.63;;
65835;SDS011;52595;51.608;7.216;2023-01-19T05:55:10;22.42;;;10.55;;
65835;SDS011;52595;51.608;7.216;2023-01-19T05:57:35;24.73;;;11.73;;
65835;SDS011;52595;51.608;7.216;2023-01-19T06:00:02;22.40;;;10.88;;
65835;SDS011;52595;51.608;7.216;2023-01-19T06:02:28;17.25;;;8.73;;
65835;SDS011;52595;51.608;7.216;2023-01-19T06:04:54;30.85;;;14.45;;
65835;SDS011;52595;51.608;7.216;2023-01-19T06:07:20;22.92;;;10.48;;
65835;SDS011;52595;51.608;7.216;2023-01-19T06:09:45;32.40;;;16.17;;
65835;SDS011;52595;51.608;7.216;2023-01-19T06:12:11;23.63;;;11.80;;
65835;SDS011;52595;51.608;7.216;2023-01-19T06:14:36;22.67;;;11.48;;
65835;SDS011;52595;51.608;7.216;2023-01-19T06:17:02;32.08;;;13.38;;
65835;SDS011;52595;51.608;7.216;2023-01-19T06:19:30;25.13;;;11.90;;
65835;SDS011;52595;51.608;7.216;2023-01-19T06:21:55;23.17;;;11.10;;
65835;SDS011;52595;51.608;7.216;2023-01-19T06:24:21;26.48;;;12.43;;
65835;SDS011;52595;51.608;7.216;2023-01-19T06:26:48;27.70;;;13.27;;
65835;SDS011;52595;51.608;7.216;2023-01-19T06:29:13;21.25;;;9.25;;
65835;SDS011;52595;51.608;7.216;2023-01-19T06:31:39;22.05;;;10.60;;
65835;SDS011;52595;51.608;7.216;2023-01-19T06:34:05;26.38;;;10.65;;
65835;SDS011;52595;51.608;7.216;2023-01-19T06:36:31;31.30;;;13.35;;
65835;SDS011;52595;51.608;7.216;2023-01-19T06:38:56;28.20;;;12.90;;
65835;SDS011;52595;51.608;7.216;2023-01-19T06:41:22;24.85;;;12.50;;
65835;SDS011;52595;51.608;7.216;2023-01-19T06:43:47;18.67;;;8.95;;
65835;SDS011;52595;51.608;7.216;2023-01-19T06:46:13;29.65;;;12.63;;
65835;SDS011;52595;51.608;7.216;2023-01-19T06:48:38;19.23;;;9.02;;
65835;SDS011;52595;51.608;7.216;2023-01-19T06:51:04;14.15;;;6.47;;
65835;SDS011;52595;51.608;7.216;2023-01-19T06:53:30;25.30;;;11.35;;
65835;SDS011;52595;51.608;7.216;2023-01-19T06:55:59;20.55;;;10.98;;
65835;SDS011;52595;51.608;7.216;2023-01-19T06:58:26;23.67;;;11.13;;
65835;SDS011;52595;51.608;7.216;2023-01-19T07:00:59;25.10;;;12.30;;
65835;SDS011;52595;51.608;7.216;2023-01-19T07:03:25;14.60;;;6.73;;
65835;SDS011;52595;51.608;7.216;2023-01-19T07:05:51;18.67;;;9.40;;
65835;SDS011;52595;51.608;7.216;2023-01-19T07:08:17;15.98;;;8.93;;
65835;SDS011;52595;51.608;7.216;2023-01-19T07:10:42;28.10;;;11.93;;
65835;SDS011;52595;51.608;7.216;2023-01-19T07:13:08;19.80;;;10.15;;
65835;SDS011;52595;51.608;7.216;2023-01-19T07:15:33;16.38;;;9.18;;
65835;SDS011;52595;51.608;7.216;2023-01-19T07:17:59;22.35;;;10.07;;
65835;SDS011;52595;51.608;7.216;2023-01-19T07:20:28;24.00;;;10.85;;
65835;SDS011;52595;51.608;7.216;2023-01-19T07:22:54;19.58;;;10.18;;
65835;SDS011;52595;51.608;7.216;2023-01-19T07:25:20;20.27;;;9.95;;
65835;SDS011;52595;51.608;7.216;2023-01-19T07:27:45;20.23;;;9.15;;
65835;SDS011;52595;51.608;7.216;2023-01-19T07:30:11;21.02;;;10.48;;
65835;SDS011;52595;51.608;7.216;2023-01-19T07:32:36;17.85;;;9.50;;
65835;SDS011;52595;51.608;7.216;2023-01-19T07:35:02;19.58;;;10.73;;
65835;SDS011;52595;51.608;7.216;2023-01-19T07:37:28;29.98;;;14.50;;
65835;SDS011;52595;51.608;7.216;2023-01-19T07:39:53;27.63;;;12.40;;
65835;SDS011;52595;51.608;7.216;2023-01-19T07:42:19;24.73;;;11.40;;
65835;SDS011;52595;51.608;7.216;2023-01-19T07:44:44;25.98;;;11.05;;
65835;SDS011;52595;51.608;7.216;2023-01-19T07:47:10;31.52;;;14.00;;
65835;SDS011;52595;51.608;7.216;2023-01-19T07:49:36;26.35;;;13.07;;
65835;SDS011;52595;51.608;7.216;2023-01-19T07:52:02;17.85;;;9.07;;
65835;SDS011;52595;51.608;7.216;2023-01-19T07:54:28;28.98;;;13.35;;
65835;SDS011;52595;51.608;7.216;2023-01-19T07:56:53;28.02;;;12.93;;
65835;SDS011;52595;51.608;7.216;2023-01-19T07:59:19;41.03;;;14.55;;
65835;SDS011;52595;51.608;7.216;2023-01-19T08:01:44;26.10;;;9.63;;
65835;SDS011;52595;51.608;7.216;2023-01-19T08:04:10;25.20;;;11.18;;
65835;SDS011;52595;51.608;7.216;2023-01-19T08:06:36;29.48;;;13.70;;
65835;SDS011;52595;51.608;7.216;2023-01-19T08:09:03;28.92;;;14.23;;
65835;SDS011;52595;51.608;7.216;2023-01-19T08:11:30;18.80;;;9.75;;
65835;SDS011;52595;51.608;7.216;2023-01-19T08:13:56;23.90;;;11.07;;
65835;SDS011;52595;51.608;7.216;2023-01-19T08:16:22;27.40;;;13.25;;
65835;SDS011;52595;51.608;7.216;2023-01-19T08:18:47;27.58;;;13.65;;
65835;SDS011;52595;51.608;7.216;2023-01-19T08:21:13;28.02;;;12.65;;
65835;SDS011;52595;51.608;7.216;2023-01-19T08:23:38;19.95;;;10.18;;
65835;SDS011;52595;51.608;7.216;2023-01-19T08:26:20;28.77;;;13.43;;
65835;SDS011;52595;51.608;7.216;2023-01-19T08:28:51;22.27;;;10.05;;
65835;SDS011;52595;51.608;7.216;2023-01-19T08:31:18;30.08;;;14.18;;
65835;SDS011;52595;51.608;7.216;2023-01-19T08:33:43;27.80;;;8.73;;
65835;SDS011;52595;51.608;7.216;2023-01-19T08:36:08;29.90;;;13.32;;
65835;SDS011;52595;51.608;7.216;2023-01-19T08:38:34;26.02;;;11.95;;
65835;SDS011;52595;51.608;7.216;2023-01-19T08:40:59;28.27;;;12.95;;
65835;SDS011;52595;51.608;7.216;2023-01-19T08:43:25;27.45;;;14.45;;
65835;SDS011;52595;51.608;7.216;2023-01-19T08:45:50;19.00;;;10.20;;
65835;SDS011;52595;51.608;7.216;2023-01-19T08:48:18;16.52;;;8.95;;
65835;SDS011;52595;51.608;7.216;2023-01-19T08:50:46;22.52;;;10.65;;
65835;SDS011;52595;51.608;7.216;2023-01-19T08:53:12;29.75;;;13.38;;
65835;SDS011;52595;51.608;7.216;2023-01-19T08:55:37;28.35;;;13.40;;
65835;SDS011;52595;51.608;7.216;2023-01-19T08:58:04;22.85;;;10.77;;
65835;SDS011;52595;51.608;7.216;2023-01-19T09:00:30;25.20;;;11.40;;
65835;SDS011;52595;51.608;7.216;2023-01-19T09:02:58;25.15;;;11.48;;
65835;SDS011;52595;51.608;7.216;2023-01-19T09:05:25;19.67;;;10.23;;
65835;SDS011;52595;51.608;7.216;2023-01-19T09:07:51;34.00;;;15.45;;
65835;SDS011;52595;51.608;7.216;2023-01-19T09:10:16;24.13;;;11.10;;
65835;SDS011;52595;51.608;7.216;2023-01-19T09:12:42;22.73;;;12.10;;
65835;SDS011;52595;51.608;7.216;2023-01-19T09:15:09;22.98;;;10.05;;
65835;SDS011;52595;51.608;7.216;2023-01-19T09:17:37;23.75;;;11.95;;
65835;SDS011;52595;51.608;7.216;2023-01-19T09:20:04;28.05;;;13.77;;
65835;SDS011;52595;51.608;7.216;2023-01-19T09:22:30;20.35;;;11.15;;
65835;SDS011;52595;51.608;7.216;2023-01-19T09:24:56;21.05;;;11.23;;
65835;SDS011;52595;51.608;7.216;2023-01-19T09:27:21;30.42;;;15.82;;
65835;SDS011;52595;51.608;7.216;2023-01-19T09:29:47;34.22;;;14.88;;
65835;SDS011;52595;51.608;7.216;2023-01-19T09:32:16;29.23;;;12.57;;
65835;SDS011;52595;51.608;7.216;2023-01-19T09:34:43;27.13;;;14.13;;
65835;SDS011;52595;51.608;7.216;2023-01-19T09:37:08;31.88;;;15.65;;
65835;SDS011;52595;51.608;7.216;2023-01-19T09:39:34;23.85;;;11.65;;
65835;SDS011;52595;51.608;7.216;2023-01-19T09:44:38;31.08;;;16.15;;
65835;SDS011;52595;51.608;7.216;2023-01-19T09:47:11;33.47;;;16.08;;
65835;SDS011;52595;51.608;7.216;2023-01-19T09:49:40;40.97;;;18.73;;
65835;SDS011;52595;51.608;7.216;2023-01-19T09:52:09;27.50;;;12.40;;
65835;SDS011;52595;51.608;7.216;2023-01-19T09:54:42;25.10;;;12.85;;
65835;SDS011;52595;51.608;7.216;2023-01-19T09:57:16;24.33;;;12.63;;
65835;SDS011;52595;51.608;7.216;2023-01-19T09:59:42;17.27;;;9.07;;
65835;SDS011;52595;51.608;7.216;2023-01-19T10:07:33;19.02;;;10.70;;
65835;SDS011;52595;51.608;7.216;2023-01-19T10:18:46;30.83;;;15.50;;
65835;SDS011;52595;51.608;7.216;2023-01-19T10:24:04;25.23;;;11.98;;
65835;SDS011;52595;51.608;7.216;2023-01-19T10:26:38;27.80;;;12.93;;
65835;SDS011;52595;51.608;7.216;2023-01-19T10:31:45;36.33;;;17.33;;
65835;SDS011;52595;51.608;7.216;2023-01-19T10:34:12;21.83;;;11.65;;
65835;SDS011;52595;51.608;7.216;2023-01-19T10:36:42;32.72;;;17.10;;
65835;SDS011;52595;51.608;7.216;2023-01-19T10:39:11;28.98;;;14.65;;
65835;SDS011;52595;51.608;7.216;2023-01-19T10:41:41;33.90;;;16.02;;
65835;SDS011;52595;51.608;7.216;2023-01-19T10:44:07;31.50;;;15.70;;
65835;SDS011;52595;51.608;7.216;2023-01-19T10:49:26;20.67;;;11.40;;
65835;SDS011;52595;51.608;7.216;2023-01-19T10:54:20;23.45;;;12.38;;
65835;SDS011;52595;51.608;7.216;2023-01-19T10:56:50;36.25;;;17.80;;
65835;SDS011;52595;51.608;7.216;2023-01-19T11:02:15;28.52;;;13.73;;
65835;SDS011;52595;51.608;7.216;2023-01-19T11:04:43;38.75;;;17.67;;
65835;SDS011;52595;51.608;7.216;2023-01-19T11:07:14;37.42;;;18.40;;
65835;SDS011;52595;51.608;7.216;2023-01-19T11:09:42;42.13;;;18.98;;
65835;SDS011;52595;51.608;7.216;2023-01-19T11:12:14;37.55;;;17.55;;
65835;SDS011;52595;51.608;7.216;2023-01-19T11:14:47;40.08;;;16.70;;
65835;SDS011;52595;51.608;7.216;2023-01-19T11:17:17;37.05;;;16.70;;
65835;SDS011;52595;51.608;7.216;2023-01-19T11:19:56;30.90;;;15.18;;
65835;SDS011;52595;51.608;7.216;2023-01-19T11:22:28;37.97;;;18.00;;
65835;SDS011;52595;51.608;7.216;2023-01-19T11:24:57;20.38;;;10.70;;
65835;SDS011;52595;51.608;7.216;2023-01-19T11:27:24;36.00;;;16.35;;
65835;SDS011;52595;51.608;7.216;2023-01-19T11:30:00;34.22;;;15.30;;
65835;SDS011;52595;51.608;7.216;2023-01-19T11:32:29;40.05;;;17.92;;
65835;SDS011;52595;51.608;7.216;2023-01-19T11:34:57;34.97;;;17.08;;
65835;SDS011;52595;51.608;7.216;2023-01-19T11:37:25;26.10;;;12.52;;
65835;SDS011;52595;51.608;7.216;2023-01-19T11:39:59;33.75;;;14.95;;
65835;SDS011;52595;51.608;7.216;2023-01-19T11:42:29;28.48;;;11.50;;
65835;SDS011;52595;51.608;7.216;2023-01-19T11:47:29;24.67;;;10.50;;
65835;SDS011;52595;51.608;7.216;2023-01-19T11:50:01;31.98;;;15.00;;
65835;SDS011;52595;51.608;7.216;2023-01-19T11:52:48;38.97;;;16.77;;
65835;SDS011;52595;51.608;7.216;2023-01-19T11:58:01;34.17;;;16.33;;
65835;SDS011;52595;51.608;7.216;2023-01-19T12:00:35;17.88;;;8.25;;
65835;SDS011;52595;51.608;7.216;2023-01-19T12:05:39;23.15;;;11.13;;
65835;SDS011;52595;51.608;7.216;2023-01-19T12:08:10;29.60;;;11.80;;
65835;SDS011;52595;51.608;7.216;2023-01-19T12:10:40;37.75;;;15.05;;
65835;SDS011;52595;51.608;7.216;2023-01-19T12:13:23;25.55;;;12.63;;
65835;SDS011;52595;51.608;7.216;2023-01-19T12:15:59;39.13;;;15.77;;
65835;SDS011;52595;51.608;7.216;2023-01-19T12:18:43;40.35;;;15.93;;
65835;SDS011;52595;51.608;7.216;2023-01-19T12:21:12;37.22;;;15.48;;
65835;SDS011;52595;51.608;7.216;2023-01-19T12:28:45;25.05;;;11.43;;
65835;SDS011;52595;51.608;7.216;2023-01-19T12:31:21;38.33;;;16.48;;
65835;SDS011;52595;51.608;7.216;2023-01-19T12:33:47;34.22;;;11.38;;
65835;SDS011;52595;51.608;7.216;2023-01-19T12:38:54;51.83;;;19.40;;
65835;SDS011;52595;51.608;7.216;2023-01-19T12:41:35;48.78;;;20.70;;
65835;SDS011;52595;51.608;7.216;2023-01-19T12:46:41;28.95;;;13.23;;
65835;SDS011;52595;51.608;7.216;2023-01-19T12:51:41;49.20;;;21.63;;
65835;SDS011;52595;51.608;7.216;2023-01-19T12:54:07;38.00;;;14.63;;
65835;SDS011;52595;51.608;7.216;2023-01-19T12:56:44;50.03;;;20.50;;
65835;SDS011;52595;51.608;7.216;2023-01-19T12:59:22;44.65;;;19.80;;
65835;SDS011;52595;51.608;7.216;2023-01-19T13:05:09;39.05;;;16.35;;
65835;SDS011;52595;51.608;7.216;2023-01-19T13:13:26;49.72;;;20.25;;
65835;SDS011;52595;51.608;7.216;2023-01-19T13:15:55;43.58;;;17.17;;
65835;SDS011;52595;51.608;7.216;2023-01-19T13:21:06;48.35;;;20.20;;
65835;SDS011;52595;51.608;7.216;2023-01-19T13:26:14;47.38;;;20.90;;
65835;SDS011;52595;51.608;7.216;2023-01-19T13:28:42;45.15;;;16.92;;
65835;SDS011;52595;51.608;7.216;2023-01-19T13:31:10;42.85;;;18.50;;
65835;SDS011;52595;51.608;7.216;2023-01-19T13:33:38;38.83;;;18.10;;
65835;SDS011;52595;51.608;7.216;2023-01-19T13:36:17;44.63;;;18.63;;
65835;SDS011;52595;51.608;7.216;2023-01-19T13:38:47;41.05;;;18.77;;
65835;SDS011;52595;51.608;7.216;2023-01-19T13:41:15;38.42;;;17.70;;
65835;SDS011;52595;51.608;7.216;2023-01-19T13:43:44;37.45;;;15.55;;
65835;SDS011;52595;51.608;7.216;2023-01-19T13:46:11;43.75;;;17.65;;
65835;SDS011;52595;51.608;7.216;2023-01-19T13:48:38;32.83;;;13.23;;
65835;SDS011;52595;51.608;7.216;2023-01-19T13:51:16;37.88;;;15.73;;
65835;SDS011;52595;51.608;7.216;2023-01-19T13:53:52;44.63;;;19.42;;
65835;SDS011;52595;51.608;7.216;2023-01-19T13:56:21;36.40;;;15.30;;
65835;SDS011;52595;51.608;7.216;2023-01-19T13:59:10;21.50;;;10.85;;
65835;SDS011;52595;51.608;7.216;2023-01-19T14:01:40;45.80;;;19.45;;
65835;SDS011;52595;51.608;7.216;2023-01-19T14:06:50;31.58;;;15.70;;
65835;SDS011;52595;51.608;7.216;2023-01-19T14:09:20;37.08;;;16.63;;
65835;SDS011;52595;51.608;7.216;2023-01-19T14:11:47;67.18;;;25.65;;
65835;SDS011;52595;51.608;7.216;2023-01-19T14:14:38;42.90;;;17.52;;
65835;SDS011;52595;51.608;7.216;2023-01-19T14:17:14;35.08;;;15.13;;
65835;SDS011;52595;51.608;7.216;2023-01-19T14:19:52;39.17;;;18.70;;
65835;SDS011;52595;51.608;7.216;2023-01-19T14:22:19;41.85;;;18.38;;
65835;SDS011;52595;51.608;7.216;2023-01-19T14:24:44;36.78;;;15.98;;
65835;SDS011;52595;51.608;7.216;2023-01-19T14:27:22;31.98;;;15.00;;
65835;SDS011;52595;51.608;7.216;2023-01-19T14:29:49;36.03;;;15.65;;
65835;SDS011;52595;51.608;7.216;2023-01-19T14:32:18;40.00;;;16.80;;
65835;SDS011;52595;51.608;7.216;2023-01-19T14:37:16;40.60;;;19.52;;
65835;SDS011;52595;51.608;7.216;2023-01-19T14:39:44;33.83;;;16.73;;
65835;SDS011;52595;51.608;7.216;2023-01-19T14:42:19;37.38;;;16.08;;
65835;SDS011;52595;51.608;7.216;2023-01-19T14:44:49;38.60;;;17.98;;
65835;SDS011;52595;51.608;7.216;2023-01-19T14:47:21;35.60;;;17.00;;
65835;SDS011;52595;51.608;7.216;2023-01-19T14:49:51;31.90;;;15.43;;
65835;SDS011;52595;51.608;7.216;2023-01-19T14:54:52;33.80;;;16.58;;
65835;SDS011;52595;51.608;7.216;2023-01-19T14:57:20;33.55;;;16.85;;
65835;SDS011;52595;51.608;7.216;2023-01-19T14:59:45;22.17;;;9.40;;
65835;SDS011;52595;51.608;7.216;2023-01-19T15:02:13;32.78;;;15.02;;
65835;SDS011;52595;51.608;7.216;2023-01-19T15:04:39;29.92;;;14.10;;
65835;SDS011;52595;51.608;7.216;2023-01-19T15:07:04;30.52;;;14.05;;
65835;SDS011;52595;51.608;7.216;2023-01-19T15:09:30;35.10;;;14.52;;
65835;SDS011;52595;51.608;7.216;2023-01-19T15:11:56;29.42;;;15.10;;
65835;SDS011;52595;51.608;7.216;2023-01-19T15:14:22;29.13;;;13.98;;
65835;SDS011;52595;51.608;7.216;2023-01-19T15:16:48;29.08;;;14.45;;
65835;SDS011;52595;51.608;7.216;2023-01-19T15:19:14;26.13;;;13.02;;
65835;SDS011;52595;51.608;7.216;2023-01-19T15:21:41;26.85;;;13.13;;
65835;SDS011;52595;51.608;7.216;2023-01-19T15:24:10;20.23;;;9.85;;
65835;SDS011;52595;51.608;7.216;2023-01-19T15:26:37;20.50;;;10.00;;
65835;SDS011;52595;51.608;7.216;2023-01-19T15:29:23;24.80;;;11.20;;
65835;SDS011;52595;51.608;7.216;2023-01-19T15:31:50;24.27;;;11.82;;
65835;SDS011;52595;51.608;7.216;2023-01-19T15:34:16;28.15;;;10.77;;
65835;SDS011;52595;51.608;7.216;2023-01-19T15:36:42;22.48;;;9.90;;
65835;SDS011;52595;51.608;7.216;2023-01-19T15:39:08;24.70;;;11.60;;
65835;SDS011;52595;51.608;7.216;2023-01-19T15:41:34;33.42;;;12.52;;
65835;SDS011;52595;51.608;7.216;2023-01-19T15:44:01;27.60;;;11.40;;
65835;SDS011;52595;51.608;7.216;2023-01-19T15:46:29;29.17;;;13.65;;
65835;SDS011;52595;51.608;7.216;2023-01-19T15:48:55;21.23;;;11.35;;
65835;SDS011;52595;51.608;7.216;2023-01-19T15:51:21;27.48;;;12.52;;
65835;SDS011;52595;51.608;7.216;2023-01-19T15:53:49;26.23;;;12.55;;
65835;SDS011;52595;51.608;7.216;2023-01-19T15:56:15;24.77;;;12.93;;
65835;SDS011;52595;51.608;7.216;2023-01-19T15:58:41;31.08;;;14.75;;
65835;SDS011;52595;51.608;7.216;2023-01-19T16:01:16;31.30;;;14.13;;
65835;SDS011;52595;51.608;7.216;2023-01-19T16:03:43;31.00;;;13.32;;
65835;SDS011;52595;51.608;7.216;2023-01-19T16:06:08;34.78;;;14.40;;